sensor_id;sensor_type;location;lat;lon;timestamp;P1;durP1;ratioP1;P2;durP2;ratioP2
51184;SDS011;37248;59.350;18.050;2023-02-28T00:01:35;9.67;;;4.80;;
51184;SDS011;37248;59.350;18.050;2023-02-28T00:04:01;11.43;;;4.60;;
51184;SDS011;37248;59.350;18.050;2023-02-28T00:06:26;11.83;;;4.37;;
51184;SDS011;37248;59.350;18.050;2023-02-28T00:08:52;14.07;;;4.25;;
51184;SDS011;37248;59.350;18.050;2023-02-28T00:11:17;8.80;;;4.27;;
51184;SDS011;37248;59.350;18.050;2023-02-28T00:13:44;10.63;;;4.20;;
51184;SDS011;37248;59.350;18.050;2023-02-28T00:16:12;10.27;;;4.00;;
51184;SDS011;37248;59.350;18.050;2023-02-28T00:18:38;9.95;;;4.50;;
51184;SDS011;37248;59.350;18.050;2023-02-28T00:21:04;9.00;;;3.90;;
51184;SDS011;37248;59.350;18.050;2023-02-28T00:23:29;9.43;;;4.38;;
51184;SDS011;37248;59.350;18.050;2023-02-28T00:25:54;8.47;;;3.80;;
51184;SDS011;37248;59.350;18.050;2023-02-28T00:28:20;6.77;;;3.50;;
51184;SDS011;37248;59.350;18.050;2023-02-28T00:30:45;7.85;;;3.88;;
51184;SDS011;37248;59.350;18.050;2023-02-28T00:33:10;8.40;;;3.93;;
51184;SDS011;37248;59.350;18.050;2023-02-28T00:35:36;10.17;;;4.03;;
51184;SDS011;37248;59.350;18.050;2023-02-28T00:38:01;9.13;;;4.13;;
51184;SDS011;37248;59.350;18.050;2023-02-28T00:40:27;8.80;;;3.92;;
51184;SDS011;37248;59.350;18.050;2023-02-28T00:42:52;7.57;;;3.53;;
51184;SDS011;37248;59.350;18.050;2023-02-28T00:45:17;9.17;;;3.93;;
51184;SDS011;37248;59.350;18.050;2023-02-28T00:47:43;9.37;;;3.70;;
51184;SDS011;37248;59.350;18.050;2023-02-28T00:50:08;7.00;;;3.47;;
51184;SDS011;37248;59.350;18.050;2023-02-28T00:52:34;7.57;;;3.47;;
51184;SDS011;37248;59.350;18.050;2023-02-28T00:54:59;7.30;;;3.20;;
51184;SDS011;37248;59.350;18.050;2023-02-28T00:57:24;7.97;;;3.40;;
51184;SDS011;37248;59.350;18.050;2023-02-28T00:59:50;6.07;;;3.00;;
51184;SDS011;37248;59.350;18.050;2023-02-28T01:02:15;5.63;;;2.97;;
51184;SDS011;37248;59.350;18.050;2023-02-28T01:04:40;6.53;;;3.20;;
51184;SDS011;37248;59.350;18.050;2023-02-28T01:07:05;6.20;;;2.87;;
51184;SDS011;37248;59.350;18.050;2023-02-28T01:09:31;6.33;;;3.07;;
51184;SDS011;37248;59.350;18.050;2023-02-28T01:11:56;6.20;;;3.17;;
51184;SDS011;37248;59.350;18.050;2023-02-28T01:14:21;7.83;;;3.17;;
51184;SDS011;37248;59.350;18.050;2023-02-28T01:16:47;8.90;;;3.17;;
51184;SDS011;37248;59.350;18.050;2023-02-28T01:19:12;5.83;;;2.97;;
51184;SDS011;37248;59.350;18.050;2023-02-28T01:21:37;9.70;;;2.90;;
51184;SDS011;37248;59.350;18.050;2023-02-28T01:24:03;6.45;;;2.88;;
51184;SDS011;37248;59.350;18.050;2023-02-28T01:26:29;11.68;;;2.80;;
51184;SDS011;37248;59.350;18.050;2023-02-28T01:28:54;8.27;;;2.83;;
51184;SDS011;37248;59.350;18.050;2023-02-28T01:31:20;14.73;;;3.13;;
51184;SDS011;37248;59.350;18.050;2023-02-28T01:33:45;5.70;;;2.75;;
51184;SDS011;37248;59.350;18.050;2023-02-28T01:36:12;5.33;;;2.60;;
51184;SDS011;37248;59.350;18.050;2023-02-28T01:38:38;6.40;;;2.67;;
51184;SDS011;37248;59.350;18.050;2023-02-28T01:41:03;5.47;;;2.77;;
51184;SDS011;37248;59.350;18.050;2023-02-28T01:43:30;4.28;;;2.17;;
51184;SDS011;37248;59.350;18.050;2023-02-28T01:45:56;8.10;;;2.63;;
51184;SDS011;37248;59.350;18.050;2023-02-28T01:48:24;6.22;;;2.50;;
51184;SDS011;37248;59.350;18.050;2023-02-28T01:50:51;6.75;;;2.28;;
51184;SDS011;37248;59.350;18.050;2023-02-28T01:53:18;8.60;;;2.70;;
51184;SDS011;37248;59.350;18.050;2023-02-28T01:55:45;5.82;;;2.17;;
51184;SDS011;37248;59.350;18.050;2023-02-28T01:58:11;6.70;;;2.33;;
51184;SDS011;37248;59.350;18.050;2023-02-28T02:00:37;5.93;;;2.43;;
51184;SDS011;37248;59.350;18.050;2023-02-28T02:03:08;5.35;;;2.15;;
51184;SDS011;37248;59.350;18.050;2023-02-28T02:05:34;5.68;;;2.13;;
51184;SDS011;37248;59.350;18.050;2023-02-28T02:08:02;4.35;;;2.10;;
51184;SDS011;37248;59.350;18.050;2023-02-28T02:15:45;6.05;;;2.10;;
51184;SDS011;37248;59.350;18.050;2023-02-28T02:23:51;3.33;;;1.87;;
51184;SDS011;37248;59.350;18.050;2023-02-28T02:26:09;4.30;;;2.03;;
51184;SDS011;37248;59.350;18.050;2023-02-28T02:36:25;3.83;;;1.70;;
51184;SDS011;37248;59.350;18.050;2023-02-28T02:41:40;7.93;;;1.95;;
51184;SDS011;37248;59.350;18.050;2023-02-28T02:46:45;4.63;;;1.90;;
51184;SDS011;37248;59.350;18.050;2023-02-28T02:49:15;7.00;;;2.08;;
51184;SDS011;37248;59.350;18.050;2023-02-28T02:51:42;3.80;;;1.90;;
51184;SDS011;37248;59.350;18.050;2023-02-28T02:54:09;6.18;;;1.70;;
51184;SDS011;37248;59.350;18.050;2023-02-28T02:56:36;5.13;;;1.60;;
51184;SDS011;37248;59.350;18.050;2023-02-28T02:59:06;3.88;;;1.70;;
51184;SDS011;37248;59.350;18.050;2023-02-28T03:01:32;4.30;;;1.73;;
51184;SDS011;37248;59.350;18.050;2023-02-28T03:04:01;3.95;;;1.60;;
51184;SDS011;37248;59.350;18.050;2023-02-28T03:06:27;3.97;;;1.80;;
51184;SDS011;37248;59.350;18.050;2023-02-28T03:08:52;4.17;;;1.50;;
51184;SDS011;37248;59.350;18.050;2023-02-28T03:11:18;4.25;;;1.65;;
51184;SDS011;37248;59.350;18.050;2023-02-28T03:16:27;4.15;;;1.30;;
51184;SDS011;37248;59.350;18.050;2023-02-28T03:21:31;2.50;;;1.10;;
51184;SDS011;37248;59.350;18.050;2023-02-28T03:26:25;2.40;;;1.37;;
51184;SDS011;37248;59.350;18.050;2023-02-28T03:28:58;4.82;;;1.27;;
51184;SDS011;37248;59.350;18.050;2023-02-28T03:31:37;2.70;;;1.35;;
51184;SDS011;37248;59.350;18.050;2023-02-28T03:34:08;2.47;;;1.40;;
51184;SDS011;37248;59.350;18.050;2023-02-28T03:36:37;3.55;;;1.33;;
51184;SDS011;37248;59.350;18.050;2023-02-28T03:39:08;3.05;;;1.35;;
51184;SDS011;37248;59.350;18.050;2023-02-28T03:41:36;2.40;;;1.20;;
51184;SDS011;37248;59.350;18.050;2023-02-28T03:44:05;3.20;;;1.30;;
51184;SDS011;37248;59.350;18.050;2023-02-28T03:46:33;3.38;;;1.20;;
51184;SDS011;37248;59.350;18.050;2023-02-28T03:49:02;3.90;;;1.17;;
51184;SDS011;37248;59.350;18.050;2023-02-28T03:51:28;2.95;;;1.20;;
51184;SDS011;37248;59.350;18.050;2023-02-28T03:53:56;3.03;;;1.00;;
51184;SDS011;37248;59.350;18.050;2023-02-28T03:56:34;3.35;;;1.17;;
51184;SDS011;37248;59.350;18.050;2023-02-28T03:59:02;4.00;;;1.10;;
51184;SDS011;37248;59.350;18.050;2023-02-28T04:01:34;3.87;;;1.17;;
51184;SDS011;37248;59.350;18.050;2023-02-28T04:04:00;5.22;;;1.10;;
51184;SDS011;37248;59.350;18.050;2023-02-28T04:06:27;4.22;;;1.20;;
51184;SDS011;37248;59.350;18.050;2023-02-28T04:08:52;3.23;;;1.00;;
51184;SDS011;37248;59.350;18.050;2023-02-28T04:13:43;1.63;;;0.83;;
51184;SDS011;37248;59.350;18.050;2023-02-28T04:16:09;2.03;;;0.90;;
51184;SDS011;37248;59.350;18.050;2023-02-28T04:18:37;3.95;;;1.15;;
51184;SDS011;37248;59.350;18.050;2023-02-28T04:21:02;2.45;;;1.15;;
51184;SDS011;37248;59.350;18.050;2023-02-28T04:23:28;2.05;;;0.82;;
51184;SDS011;37248;59.350;18.050;2023-02-28T04:25:54;2.60;;;1.00;;
51184;SDS011;37248;59.350;18.050;2023-02-28T04:28:19;2.00;;;1.10;;
51184;SDS011;37248;59.350;18.050;2023-02-28T04:30:45;2.73;;;0.90;;
51184;SDS011;37248;59.350;18.050;2023-02-28T04:33:10;1.77;;;0.90;;
51184;SDS011;37248;59.350;18.050;2023-02-28T04:35:38;3.43;;;0.80;;
51184;SDS011;37248;59.350;18.050;2023-02-28T04:38:03;2.67;;;0.70;;
51184;SDS011;37248;59.350;18.050;2023-02-28T04:40:29;3.03;;;0.70;;
51184;SDS011;37248;59.350;18.050;2023-02-28T04:42:54;3.43;;;0.97;;
51184;SDS011;37248;59.350;18.050;2023-02-28T04:45:19;3.70;;;0.90;;
51184;SDS011;37248;59.350;18.050;2023-02-28T04:47:44;2.33;;;0.90;;
51184;SDS011;37248;59.350;18.050;2023-02-28T04:50:10;3.80;;;0.90;;
51184;SDS011;37248;59.350;18.050;2023-02-28T04:52:35;3.80;;;0.90;;
51184;SDS011;37248;59.350;18.050;2023-02-28T04:55:00;3.03;;;0.93;;
51184;SDS011;37248;59.350;18.050;2023-02-28T04:57:26;2.35;;;0.80;;
51184;SDS011;37248;59.350;18.050;2023-02-28T04:59:52;1.13;;;0.70;;
51184;SDS011;37248;59.350;18.050;2023-02-28T05:02:17;3.85;;;0.77;;
51184;SDS011;37248;59.350;18.050;2023-02-28T05:04:42;2.90;;;0.80;;
51184;SDS011;37248;59.350;18.050;2023-02-28T05:07:07;2.30;;;0.67;;
51184;SDS011;37248;59.350;18.050;2023-02-28T05:09:33;2.50;;;0.90;;
51184;SDS011;37248;59.350;18.050;2023-02-28T05:11:58;2.87;;;0.70;;
51184;SDS011;37248;59.350;18.050;2023-02-28T05:14:23;2.00;;;0.63;;
51184;SDS011;37248;59.350;18.050;2023-02-28T05:16:48;2.13;;;0.70;;
51184;SDS011;37248;59.350;18.050;2023-02-28T05:19:14;5.70;;;1.13;;
51184;SDS011;37248;59.350;18.050;2023-02-28T05:21:40;4.23;;;0.70;;
51184;SDS011;37248;59.350;18.050;2023-02-28T05:24:06;2.80;;;0.70;;
51184;SDS011;37248;59.350;18.050;2023-02-28T05:26:42;3.15;;;0.90;;
51184;SDS011;37248;59.350;18.050;2023-02-28T05:29:07;4.30;;;0.90;;
51184;SDS011;37248;59.350;18.050;2023-02-28T05:31:33;2.58;;;0.68;;
51184;SDS011;37248;59.350;18.050;2023-02-28T05:33:58;5.70;;;0.70;;
51184;SDS011;37248;59.350;18.050;2023-02-28T05:36:23;3.00;;;0.77;;
51184;SDS011;37248;59.350;18.050;2023-02-28T05:38:49;10.63;;;0.80;;
51184;SDS011;37248;59.350;18.050;2023-02-28T05:41:15;2.90;;;0.77;;
51184;SDS011;37248;59.350;18.050;2023-02-28T05:43:40;3.10;;;0.70;;
51184;SDS011;37248;59.350;18.050;2023-02-28T05:46:06;2.20;;;0.50;;
51184;SDS011;37248;59.350;18.050;2023-02-28T05:48:32;5.30;;;1.00;;
51184;SDS011;37248;59.350;18.050;2023-02-28T05:50:58;2.10;;;0.68;;
51184;SDS011;37248;59.350;18.050;2023-02-28T05:53:23;2.27;;;0.80;;
51184;SDS011;37248;59.350;18.050;2023-02-28T05:55:48;3.37;;;0.73;;
51184;SDS011;37248;59.350;18.050;2023-02-28T05:58:14;2.37;;;0.83;;
51184;SDS011;37248;59.350;18.050;2023-02-28T06:00:39;1.73;;;0.50;;
51184;SDS011;37248;59.350;18.050;2023-02-28T06:03:04;1.87;;;0.60;;
51184;SDS011;37248;59.350;18.050;2023-02-28T06:05:30;3.40;;;0.60;;
51184;SDS011;37248;59.350;18.050;2023-02-28T06:07:56;2.03;;;0.50;;
51184;SDS011;37248;59.350;18.050;2023-02-28T06:10:21;3.20;;;0.67;;
51184;SDS011;37248;59.350;18.050;2023-02-28T06:12:46;4.03;;;0.60;;
51184;SDS011;37248;59.350;18.050;2023-02-28T06:15:12;3.25;;;0.80;;
51184;SDS011;37248;59.350;18.050;2023-02-28T06:17:38;4.47;;;0.80;;
51184;SDS011;37248;59.350;18.050;2023-02-28T06:20:03;3.53;;;0.60;;
51184;SDS011;37248;59.350;18.050;2023-02-28T06:22:29;5.40;;;0.70;;
51184;SDS011;37248;59.350;18.050;2023-02-28T06:24:54;3.97;;;0.77;;
51184;SDS011;37248;59.350;18.050;2023-02-28T06:27:20;15.18;;;1.10;;
51184;SDS011;37248;59.350;18.050;2023-02-28T06:29:47;9.23;;;1.00;;
51184;SDS011;37248;59.350;18.050;2023-02-28T06:32:12;7.23;;;1.00;;
51184;SDS011;37248;59.350;18.050;2023-02-28T06:34:37;3.72;;;0.68;;
51184;SDS011;37248;59.350;18.050;2023-02-28T06:37:02;11.00;;;1.17;;
51184;SDS011;37248;59.350;18.050;2023-02-28T06:39:28;10.90;;;1.38;;
51184;SDS011;37248;59.350;18.050;2023-02-28T06:41:54;6.80;;;1.00;;
51184;SDS011;37248;59.350;18.050;2023-02-28T06:44:19;5.23;;;1.00;;
51184;SDS011;37248;59.350;18.050;2023-02-28T06:46:45;8.30;;;1.20;;
51184;SDS011;37248;59.350;18.050;2023-02-28T06:49:10;13.13;;;1.03;;
51184;SDS011;37248;59.350;18.050;2023-02-28T06:51:37;15.40;;;1.30;;
51184;SDS011;37248;59.350;18.050;2023-02-28T06:54:02;10.50;;;1.00;;
51184;SDS011;37248;59.350;18.050;2023-02-28T06:56:28;8.32;;;1.42;;
51184;SDS011;37248;59.350;18.050;2023-02-28T06:58:53;11.80;;;1.00;;
51184;SDS011;37248;59.350;18.050;2023-02-28T07:01:19;41.80;;;3.53;;
51184;SDS011;37248;59.350;18.050;2023-02-28T07:03:44;35.97;;;2.42;;
51184;SDS011;37248;59.350;18.050;2023-02-28T07:06:09;22.83;;;2.57;;
51184;SDS011;37248;59.350;18.050;2023-02-28T07:08:34;33.43;;;3.17;;
51184;SDS011;37248;59.350;18.050;2023-02-28T07:11:01;22.80;;;2.50;;
51184;SDS011;37248;59.350;18.050;2023-02-28T07:13:26;36.95;;;3.20;;
51184;SDS011;37248;59.350;18.050;2023-02-28T07:18:20;25.10;;;3.13;;
51184;SDS011;37248;59.350;18.050;2023-02-28T07:20:45;24.27;;;3.00;;
51184;SDS011;37248;59.350;18.050;2023-02-28T07:23:10;15.63;;;2.63;;
51184;SDS011;37248;59.350;18.050;2023-02-28T07:25:36;22.17;;;2.77;;
51184;SDS011;37248;59.350;18.050;2023-02-28T07:28:01;20.10;;;2.67;;
51184;SDS011;37248;59.350;18.050;2023-02-28T07:30:26;15.57;;;2.77;;
51184;SDS011;37248;59.350;18.050;2023-02-28T07:32:52;11.63;;;2.33;;
51184;SDS011;37248;59.350;18.050;2023-02-28T07:35:19;12.60;;;2.23;;
51184;SDS011;37248;59.350;18.050;2023-02-28T07:37:45;10.17;;;2.20;;
51184;SDS011;37248;59.350;18.050;2023-02-28T07:40:12;47.17;;;4.90;;
51184;SDS011;37248;59.350;18.050;2023-02-28T07:42:37;31.17;;;3.80;;
51184;SDS011;37248;59.350;18.050;2023-02-28T07:45:03;23.40;;;2.80;;
51184;SDS011;37248;59.350;18.050;2023-02-28T07:47:29;30.73;;;2.90;;
51184;SDS011;37248;59.350;18.050;2023-02-28T07:49:55;25.33;;;3.10;;
51184;SDS011;37248;59.350;18.050;2023-02-28T07:52:20;18.03;;;3.07;;
51184;SDS011;37248;59.350;18.050;2023-02-28T07:54:45;20.93;;;3.00;;
51184;SDS011;37248;59.350;18.050;2023-02-28T07:57:10;20.93;;;2.63;;
51184;SDS011;37248;59.350;18.050;2023-02-28T07:59:36;22.60;;;2.88;;
51184;SDS011;37248;59.350;18.050;2023-02-28T08:02:01;13.77;;;3.00;;
51184;SDS011;37248;59.350;18.050;2023-02-28T08:04:26;18.47;;;2.47;;
51184;SDS011;37248;59.350;18.050;2023-02-28T08:06:52;24.60;;;3.07;;
51184;SDS011;37248;59.350;18.050;2023-02-28T08:09:18;15.50;;;2.80;;
51184;SDS011;37248;59.350;18.050;2023-02-28T08:11:43;14.77;;;2.63;;
51184;SDS011;37248;59.350;18.050;2023-02-28T08:14:08;14.40;;;2.43;;
51184;SDS011;37248;59.350;18.050;2023-02-28T08:16:34;16.53;;;2.50;;
51184;SDS011;37248;59.350;18.050;2023-02-28T08:18:59;15.37;;;2.10;;
51184;SDS011;37248;59.350;18.050;2023-02-28T08:21:24;11.63;;;2.13;;
51184;SDS011;37248;59.350;18.050;2023-02-28T08:23:50;7.13;;;1.83;;
51184;SDS011;37248;59.350;18.050;2023-02-28T08:26:16;11.50;;;2.17;;
51184;SDS011;37248;59.350;18.050;2023-02-28T08:28:42;12.57;;;2.50;;
51184;SDS011;37248;59.350;18.050;2023-02-28T08:31:08;8.80;;;2.00;;
51184;SDS011;37248;59.350;18.050;2023-02-28T08:33:34;12.88;;;2.20;;
51184;SDS011;37248;59.350;18.050;2023-02-28T08:35:59;15.23;;;2.30;;
51184;SDS011;37248;59.350;18.050;2023-02-28T08:38:25;11.00;;;2.20;;
51184;SDS011;37248;59.350;18.050;2023-02-28T08:40:56;12.13;;;1.60;;
51184;SDS011;37248;59.350;18.050;2023-02-28T08:43:22;9.50;;;1.92;;
51184;SDS011;37248;59.350;18.050;2023-02-28T08:45:47;5.53;;;1.83;;
51184;SDS011;37248;59.350;18.050;2023-02-28T08:48:15;8.90;;;1.80;;
51184;SDS011;37248;59.350;18.050;2023-02-28T08:50:41;12.53;;;1.90;;
51184;SDS011;37248;59.350;18.050;2023-02-28T08:53:06;13.27;;;2.10;;
51184;SDS011;37248;59.350;18.050;2023-02-28T08:55:31;10.03;;;2.20;;
51184;SDS011;37248;59.350;18.050;2023-02-28T08:57:56;13.30;;;2.30;;
51184;SDS011;37248;59.350;18.050;2023-02-28T09:00:23;10.90;;;2.20;;
51184;SDS011;37248;59.350;18.050;2023-02-28T09:02:48;15.30;;;2.30;;
51184;SDS011;37248;59.350;18.050;2023-02-28T09:05:13;21.63;;;2.60;;
51184;SDS011;37248;59.350;18.050;2023-02-28T09:07:39;13.63;;;1.80;;
51184;SDS011;37248;59.350;18.050;2023-02-28T09:10:04;15.23;;;2.30;;
51184;SDS011;37248;59.350;18.050;2023-02-28T09:12:32;10.33;;;1.97;;
51184;SDS011;37248;59.350;18.050;2023-02-28T09:14:57;12.35;;;1.58;;
51184;SDS011;37248;59.350;18.050;2023-02-28T09:17:22;13.13;;;2.20;;
51184;SDS011;37248;59.350;18.050;2023-02-28T09:19:48;13.10;;;2.00;;
51184;SDS011;37248;59.350;18.050;2023-02-28T09:22:14;15.60;;;1.95;;
51184;SDS011;37248;59.350;18.050;2023-02-28T09:24:39;9.37;;;1.63;;
51184;SDS011;37248;59.350;18.050;2023-02-28T09:27:05;10.33;;;2.13;;
51184;SDS011;37248;59.350;18.050;2023-02-28T09:29:31;7.30;;;2.10;;
51184;SDS011;37248;59.350;18.050;2023-02-28T09:31:56;7.10;;;1.52;;
51184;SDS011;37248;59.350;18.050;2023-02-28T09:34:24;10.27;;;1.92;;
51184;SDS011;37248;59.350;18.050;2023-02-28T09:36:49;11.70;;;1.98;;
51184;SDS011;37248;59.350;18.050;2023-02-28T09:39:15;16.15;;;1.95;;
51184;SDS011;37248;59.350;18.050;2023-02-28T09:41:45;11.37;;;1.93;;
51184;SDS011;37248;59.350;18.050;2023-02-28T09:44:21;8.43;;;1.80;;
51184;SDS011;37248;59.350;18.050;2023-02-28T09:46:48;9.60;;;1.80;;
51184;SDS011;37248;59.350;18.050;2023-02-28T09:49:16;5.82;;;1.73;;
51184;SDS011;37248;59.350;18.050;2023-02-28T09:54:19;7.78;;;1.70;;
51184;SDS011;37248;59.350;18.050;2023-02-28T09:56:45;7.80;;;1.88;;
51184;SDS011;37248;59.350;18.050;2023-02-28T10:02:03;6.60;;;1.80;;
51184;SDS011;37248;59.350;18.050;2023-02-28T10:09:43;4.70;;;1.48;;
51184;SDS011;37248;59.350;18.050;2023-02-28T10:12:10;5.22;;;1.50;;
51184;SDS011;37248;59.350;18.050;2023-02-28T10:14:36;8.50;;;1.60;;
51184;SDS011;37248;59.350;18.050;2023-02-28T10:17:06;4.87;;;1.27;;
51184;SDS011;37248;59.350;18.050;2023-02-28T10:19:38;6.35;;;1.40;;
51184;SDS011;37248;59.350;18.050;2023-02-28T10:22:11;7.07;;;1.40;;
51184;SDS011;37248;59.350;18.050;2023-02-28T10:24:39;4.07;;;1.25;;
51184;SDS011;37248;59.350;18.050;2023-02-28T10:27:15;7.87;;;1.33;;
51184;SDS011;37248;59.350;18.050;2023-02-28T10:29:44;4.47;;;1.30;;
51184;SDS011;37248;59.350;18.050;2023-02-28T10:32:10;3.00;;;1.00;;
51184;SDS011;37248;59.350;18.050;2023-02-28T10:34:36;4.25;;;1.40;;
51184;SDS011;37248;59.350;18.050;2023-02-28T10:37:01;4.20;;;1.10;;
51184;SDS011;37248;59.350;18.050;2023-02-28T10:42:01;4.22;;;1.60;;
51184;SDS011;37248;59.350;18.050;2023-02-28T10:44:26;4.43;;;1.10;;
51184;SDS011;37248;59.350;18.050;2023-02-28T10:46:52;4.03;;;1.23;;
51184;SDS011;37248;59.350;18.050;2023-02-28T10:49:22;6.50;;;1.30;;
51184;SDS011;37248;59.350;18.050;2023-02-28T10:51:49;8.73;;;1.30;;
51184;SDS011;37248;59.350;18.050;2023-02-28T10:54:15;2.60;;;1.02;;
51184;SDS011;37248;59.350;18.050;2023-02-28T10:56:41;4.00;;;1.15;;
51184;SDS011;37248;59.350;18.050;2023-02-28T10:59:26;3.40;;;1.10;;
51184;SDS011;37248;59.350;18.050;2023-02-28T11:01:51;5.70;;;0.80;;
51184;SDS011;37248;59.350;18.050;2023-02-28T11:06:44;4.10;;;1.20;;
51184;SDS011;37248;59.350;18.050;2023-02-28T11:11:45;4.45;;;1.00;;
51184;SDS011;37248;59.350;18.050;2023-02-28T11:14:24;4.70;;;1.40;;
51184;SDS011;37248;59.350;18.050;2023-02-28T11:16:50;3.13;;;1.10;;
51184;SDS011;37248;59.350;18.050;2023-02-28T11:19:26;4.13;;;1.07;;
51184;SDS011;37248;59.350;18.050;2023-02-28T11:21:54;3.08;;;0.80;;
51184;SDS011;37248;59.350;18.050;2023-02-28T11:24:27;2.10;;;0.90;;
51184;SDS011;37248;59.350;18.050;2023-02-28T11:26:53;3.03;;;1.00;;
51184;SDS011;37248;59.350;18.050;2023-02-28T11:32:02;4.07;;;1.03;;
51184;SDS011;37248;59.350;18.050;2023-02-28T11:34:27;2.83;;;0.90;;
51184;SDS011;37248;59.350;18.050;2023-02-28T11:36:54;4.20;;;0.80;;
51184;SDS011;37248;59.350;18.050;2023-02-28T11:39:19;3.75;;;1.00;;
51184;SDS011;37248;59.350;18.050;2023-02-28T11:46:46;2.67;;;0.90;;
51184;SDS011;37248;59.350;18.050;2023-02-28T11:51:54;2.20;;;1.02;;
51184;SDS011;37248;59.350;18.050;2023-02-28T11:54:27;1.58;;;0.80;;
51184;SDS011;37248;59.350;18.050;2023-02-28T11:57:00;1.88;;;0.85;;
51184;SDS011;37248;59.350;18.050;2023-02-28T12:04:25;3.30;;;0.90;;
51184;SDS011;37248;59.350;18.050;2023-02-28T12:07:04;2.25;;;0.80;;
51184;SDS011;37248;59.350;18.050;2023-02-28T12:09:38;2.25;;;0.90;;
51184;SDS011;37248;59.350;18.050;2023-02-28T12:19:30;2.20;;;0.70;;
51184;SDS011;37248;59.350;18.050;2023-02-28T12:26:53;1.90;;;0.67;;
51184;SDS011;37248;59.350;18.050;2023-02-28T12:29:23;2.28;;;0.80;;
51184;SDS011;37248;59.350;18.050;2023-02-28T12:34:24;1.02;;;0.50;;
51184;SDS011;37248;59.350;18.050;2023-02-28T12:36:51;1.60;;;0.60;;
51184;SDS011;37248;59.350;18.050;2023-02-28T12:39:20;2.58;;;0.70;;
51184;SDS011;37248;59.350;18.050;2023-02-28T12:41:48;1.77;;;0.50;;
51184;SDS011;37248;59.350;18.050;2023-02-28T12:44:18;1.58;;;0.70;;
51184;SDS011;37248;59.350;18.050;2023-02-28T12:46:47;2.67;;;0.50;;
51184;SDS011;37248;59.350;18.050;2023-02-28T12:49:37;1.05;;;0.60;;
51184;SDS011;37248;59.350;18.050;2023-02-28T12:51:59;2.65;;;0.68;;
51184;SDS011;37248;59.350;18.050;2023-02-28T12:55:07;1.88;;;0.70;;
51184;SDS011;37248;59.350;18.050;2023-02-28T12:57:16;1.35;;;0.50;;
51184;SDS011;37248;59.350;18.050;2023-02-28T12:59:49;3.00;;;0.70;;
51184;SDS011;37248;59.350;18.050;2023-02-28T13:10:05;2.17;;;0.65;;
51184;SDS011;37248;59.350;18.050;2023-02-28T13:12:32;1.60;;;0.60;;
51184;SDS011;37248;59.350;18.050;2023-02-28T13:15:04;1.05;;;0.60;;
51184;SDS011;37248;59.350;18.050;2023-02-28T13:17:29;1.25;;;0.65;;
51184;SDS011;37248;59.350;18.050;2023-02-28T13:19:56;2.72;;;0.60;;
51184;SDS011;37248;59.350;18.050;2023-02-28T13:24:51;0.88;;;0.50;;
51184;SDS011;37248;59.350;18.050;2023-02-28T13:27:33;3.75;;;0.60;;
51184;SDS011;37248;59.350;18.050;2023-02-28T13:29:58;1.05;;;0.50;;
51184;SDS011;37248;59.350;18.050;2023-02-28T13:32:31;3.13;;;0.52;;
51184;SDS011;37248;59.350;18.050;2023-02-28T13:47:27;1.10;;;0.50;;
51184;SDS011;37248;59.350;18.050;2023-02-28T13:49:53;2.70;;;0.70;;
51184;SDS011;37248;59.350;18.050;2023-02-28T13:52:20;1.37;;;0.53;;
51184;SDS011;37248;59.350;18.050;2023-02-28T14:03:06;0.95;;;0.50;;
51184;SDS011;37248;59.350;18.050;2023-02-28T14:05:24;1.38;;;0.63;;
51184;SDS011;37248;59.350;18.050;2023-02-28T14:07:52;0.90;;;0.43;;
51184;SDS011;37248;59.350;18.050;2023-02-28T14:10:28;1.00;;;0.60;;
51184;SDS011;37248;59.350;18.050;2023-02-28T14:15:25;1.30;;;0.50;;
51184;SDS011;37248;59.350;18.050;2023-02-28T14:17:52;0.77;;;0.45;;
51184;SDS011;37248;59.350;18.050;2023-02-28T14:20:18;0.95;;;0.60;;
51184;SDS011;37248;59.350;18.050;2023-02-28T14:25:18;0.90;;;0.50;;
51184;SDS011;37248;59.350;18.050;2023-02-28T14:36:09;1.90;;;0.57;;
51184;SDS011;37248;59.350;18.050;2023-02-28T14:38:43;1.27;;;0.60;;
51184;SDS011;37248;59.350;18.050;2023-02-28T14:41:23;1.85;;;0.60;;
51184;SDS011;37248;59.350;18.050;2023-02-28T14:43:58;1.60;;;0.60;;
51184;SDS011;37248;59.350;18.050;2023-02-28T14:46:35;1.65;;;0.57;;
51184;SDS011;37248;59.350;18.050;2023-02-28T14:49:01;0.88;;;0.60;;
51184;SDS011;37248;59.350;18.050;2023-02-28T14:51:26;0.87;;;0.57;;
51184;SDS011;37248;59.350;18.050;2023-02-28T14:53:57;1.10;;;0.60;;
51184;SDS011;37248;59.350;18.050;2023-02-28T14:56:27;1.83;;;0.50;;
51184;SDS011;37248;59.350;18.050;2023-02-28T14:58:56;1.20;;;0.50;;
51184;SDS011;37248;59.350;18.050;2023-02-28T15:01:22;1.83;;;0.50;;
51184;SDS011;37248;59.350;18.050;2023-02-28T15:03:48;1.30;;;0.68;;
51184;SDS011;37248;59.350;18.050;2023-02-28T15:06:21;3.40;;;0.70;;
51184;SDS011;37248;59.350;18.050;2023-02-28T15:09:01;1.88;;;0.60;;
51184;SDS011;37248;59.350;18.050;2023-02-28T15:11:31;2.20;;;0.70;;
51184;SDS011;37248;59.350;18.050;2023-02-28T15:13:56;1.27;;;0.40;;
51184;SDS011;37248;59.350;18.050;2023-02-28T15:16:23;2.03;;;0.70;;
51184;SDS011;37248;59.350;18.050;2023-02-28T15:19:04;1.88;;;0.60;;
51184;SDS011;37248;59.350;18.050;2023-02-28T15:21:34;1.00;;;0.63;;
51184;SDS011;37248;59.350;18.050;2023-02-28T15:24:04;1.63;;;0.70;;
51184;SDS011;37248;59.350;18.050;2023-02-28T15:26:32;1.80;;;0.75;;
51184;SDS011;37248;59.350;18.050;2023-02-28T15:29:04;4.53;;;0.70;;
51184;SDS011;37248;59.350;18.050;2023-02-28T15:31:40;1.98;;;0.60;;
51184;SDS011;37248;59.350;18.050;2023-02-28T15:34:06;2.60;;;0.70;;
51184;SDS011;37248;59.350;18.050;2023-02-28T15:36:32;2.53;;;0.77;;
51184;SDS011;37248;59.350;18.050;2023-02-28T15:38:59;3.70;;;0.70;;
51184;SDS011;37248;59.350;18.050;2023-02-28T15:41:28;7.30;;;0.70;;
51184;SDS011;37248;59.350;18.050;2023-02-28T15:46:44;5.70;;;0.68;;
51184;SDS011;37248;59.350;18.050;2023-02-28T15:49:17;2.80;;;0.60;;
51184;SDS011;37248;59.350;18.050;2023-02-28T15:51:44;5.97;;;1.00;;
51184;SDS011;37248;59.350;18.050;2023-02-28T15:54:12;3.60;;;0.80;;
51184;SDS011;37248;59.350;18.050;2023-02-28T15:56:46;4.60;;;0.90;;
51184;SDS011;37248;59.350;18.050;2023-02-28T15:59:15;8.10;;;1.10;;
51184;SDS011;37248;59.350;18.050;2023-02-28T16:01:42;5.25;;;1.02;;
51184;SDS011;37248;59.350;18.050;2023-02-28T16:04:15;5.40;;;0.80;;
51184;SDS011;37248;59.350;18.050;2023-02-28T16:06:47;5.43;;;0.82;;
51184;SDS011;37248;59.350;18.050;2023-02-28T16:09:25;4.63;;;0.80;;
51184;SDS011;37248;59.350;18.050;2023-02-28T16:11:52;5.07;;;1.30;;
51184;SDS011;37248;59.350;18.050;2023-02-28T16:14:22;7.13;;;2.78;;
51184;SDS011;37248;59.350;18.050;2023-02-28T16:16:49;6.43;;;4.20;;
51184;SDS011;37248;59.350;18.050;2023-02-28T16:19:14;8.43;;;4.40;;
51184;SDS011;37248;59.350;18.050;2023-02-28T16:21:40;7.10;;;4.13;;
51184;SDS011;37248;59.350;18.050;2023-02-28T16:24:05;8.17;;;4.20;;
51184;SDS011;37248;59.350;18.050;2023-02-28T16:26:31;12.37;;;5.07;;
51184;SDS011;37248;59.350;18.050;2023-02-28T16:28:59;12.53;;;4.70;;
51184;SDS011;37248;59.350;18.050;2023-02-28T16:31:24;11.87;;;4.57;;
51184;SDS011;37248;59.350;18.050;2023-02-28T16:33:49;14.00;;;4.60;;
51184;SDS011;37248;59.350;18.050;2023-02-28T16:36:19;9.03;;;4.43;;
51184;SDS011;37248;59.350;18.050;2023-02-28T16:38:44;14.02;;;4.40;;
51184;SDS011;37248;59.350;18.050;2023-02-28T16:41:14;10.17;;;4.80;;
51184;SDS011;37248;59.350;18.050;2023-02-28T16:43:43;11.02;;;4.65;;